Time;durP1;ratioP1;P1;durP2;ratioP2;P2;SDS_P1;SDS_P2;PMS_P1;PMS_P2;Temp;Humidity;BMP_temperature;BMP_pressure;BME280_temperature;BME280_humidity;BME280_pressure;Samples;Min_cycle;Max_cycle;Signal;HPM_P1;HPM_P2
2022/12/26 00:00:42;;;;;;;15.70;6.23;;;;;;;7.94;100.00;96356.72;5038191;28;20208;-69
2022/12/26 00:03:09;;;;;;;15.73;7.13;;;;;;;7.94;100.00;96359.34;5038103;28;20579;-70
2022/12/26 00:05:35;;;;;;;14.87;6.53;;;;;;;7.99;100.00;96367.56;5037731;28;20320;-69
2022/12/26 00:08:02;;;;;;;15.53;6.37;;;;;;;7.95;100.00;96366.22;5037564;28;20232;-70
2022/12/26 00:10:30;;;;;;;15.37;6.80;;;;;;;8.04;100.00;96354.78;5037481;28;20205;-69
2022/12/26 00:12:56;;;;;;;15.97;6.57;;;;;;;7.87;100.00;96363.59;5038104;28;21418;-70
2022/12/26 00:15:23;;;;;;;13.60;6.47;;;;;;;7.95;100.00;96361.00;5036989;28;20205;-70
2022/12/26 00:17:49;;;;;;;16.20;6.70;;;;;;;7.93;100.00;96370.84;5037747;28;20205;-70
2022/12/26 00:20:16;;;;;;;13.00;5.90;;;;;;;7.85;100.00;96364.72;5037900;28;20260;-69
2022/12/26 00:22:43;;;;;;;16.40;6.50;;;;;;;7.90;100.00;96363.25;5037519;28;20197;-71
2022/12/26 00:25:09;;;;;;;12.13;5.50;;;;;;;7.75;100.00;96364.84;5036487;28;20327;-71
2022/12/26 00:27:37;;;;;;;15.17;6.07;;;;;;;7.86;100.00;96373.25;5038925;28;20209;-70
2022/12/26 00:30:05;;;;;;;14.00;5.87;;;;;;;7.73;100.00;96372.03;5037592;28;20220;-70
2022/12/26 00:32:31;;;;;;;14.57;6.73;;;;;;;7.74;100.00;96378.94;5036414;28;20205;-68
2022/12/26 00:34:57;;;;;;;10.60;5.97;;;;;;;7.61;100.00;96368.06;5037138;28;20207;-70
2022/12/26 00:37:24;;;;;;;12.23;5.87;;;;;;;7.76;100.00;96379.59;5037628;28;20215;-69
2022/12/26 00:39:50;;;;;;;12.73;5.37;;;;;;;7.77;100.00;96377.81;5036657;28;20232;-72
2022/12/26 00:42:17;;;;;;;17.80;7.03;;;;;;;7.83;100.00;96383.25;5037496;28;20212;-72
2022/12/26 00:44:45;;;;;;;17.83;6.53;;;;;;;7.84;100.00;96382.28;5036724;28;20201;-71
2022/12/26 00:47:11;;;;;;;13.83;5.53;;;;;;;7.67;100.00;96383.16;5037066;28;20205;-72
2022/12/26 00:49:37;;;;;;;11.97;5.63;;;;;;;7.77;100.00;96385.69;5037199;28;20228;-71
2022/12/26 00:52:04;;;;;;;13.50;5.57;;;;;;;7.77;100.00;96383.06;5037004;28;20205;-72
2022/12/26 00:54:31;;;;;;;17.40;5.97;;;;;;;7.64;100.00;96388.72;5036191;28;20209;-71
2022/12/26 00:56:58;;;;;;;12.43;4.93;;;;;;;7.49;100.00;96389.44;5037132;28;20208;-71
2022/12/26 00:59:25;;;;;;;16.73;6.87;;;;;;;7.59;100.00;96390.97;5036983;28;20244;-72
2022/12/26 01:01:54;;;;;;;12.03;5.67;;;;;;;7.66;100.00;96380.69;5036675;28;20628;-72
2022/12/26 01:04:20;;;;;;;13.07;6.10;;;;;;;7.52;100.00;96378.63;5036297;28;20205;-72
2022/12/26 01:06:47;;;;;;;12.43;6.20;;;;;;;7.57;100.00;96386.84;5036878;28;20650;-72
2022/12/26 01:09:14;;;;;;;14.03;5.90;;;;;;;7.53;100.00;96386.34;5036550;28;20228;-72
2022/12/26 01:11:40;;;;;;;13.67;5.80;;;;;;;7.50;100.00;96391.91;5036536;28;20197;-72
2022/12/26 01:14:09;;;;;;;12.30;5.53;;;;;;;7.43;100.00;96376.94;5037192;28;20208;-69
2022/12/26 01:16:37;;;;;;;13.80;5.83;;;;;;;7.54;100.00;96403.72;5037962;28;20205;-71
2022/12/26 01:19:05;;;;;;;13.90;6.37;;;;;;;7.47;100.00;96397.47;5037595;28;20693;-70
2022/12/26 01:21:32;;;;;;;12.53;5.60;;;;;;;7.45;100.00;96402.03;5037739;28;20197;-69
2022/12/26 01:23:58;;;;;;;10.03;5.20;;;;;;;7.28;100.00;96404.72;5037468;28;20209;-70
2022/12/26 01:26:25;;;;;;;11.60;5.43;;;;;;;7.31;100.00;96397.34;5037802;28;20205;-70
2022/12/26 01:28:53;;;;;;;12.13;5.20;;;;;;;7.34;100.00;96394.44;5037661;28;20582;-70
2022/12/26 01:31:21;;;;;;;11.93;5.27;;;;;;;7.44;100.00;96395.13;5036724;28;20212;-69
2022/12/26 01:33:48;;;;;;;13.90;5.97;;;;;;;7.39;100.00;96394.78;5035834;28;20213;-70
2022/12/26 01:36:17;;;;;;;12.27;5.67;;;;;;;7.37;100.00;96401.16;5037656;28;20973;-69
2022/12/26 01:38:44;;;;;;;10.00;5.10;;;;;;;7.36;100.00;96394.28;5035234;28;20221;-69
2022/12/26 01:41:18;;;;;;;11.37;5.33;;;;;;;7.31;100.00;96399.97;5036295;28;20209;-69
2022/12/26 01:43:56;;;;;;;10.93;5.10;;;;;;;7.40;100.00;96399.03;5037817;28;20197;-70
2022/12/26 01:46:29;;;;;;;13.33;5.23;;;;;;;7.36;100.00;96384.59;5040284;28;20205;-69
2022/12/26 01:48:58;;;;;;;14.07;5.63;;;;;;;7.35;100.00;96385.56;5040618;28;20213;-70
2022/12/26 01:51:32;;;;;;;11.17;5.10;;;;;;;7.43;100.00;96390.91;5040588;28;20205;-70
2022/12/26 01:54:03;;;;;;;10.77;4.57;;;;;;;7.36;100.00;96396.91;5039774;28;20204;-69
2022/12/26 01:56:34;;;;;;;10.67;4.60;;;;;;;7.37;100.00;96385.44;5039999;28;20216;-72
2022/12/26 01:59:05;;;;;;;9.13;4.27;;;;;;;7.37;100.00;96386.25;5039771;28;20233;-72
2022/12/26 02:01:34;;;;;;;9.17;4.03;;;;;;;7.39;100.00;96394.78;5040107;28;20680;-70
2022/12/26 02:06:50;;;;;;;9.27;4.23;;;;;;;7.43;100.00;96403.16;5039482;28;20258;-69
2022/12/26 02:09:17;;;;;;;9.20;4.93;;;;;;;7.29;100.00;96401.09;5040236;28;20221;-69
2022/12/26 02:11:49;;;;;;;11.90;4.43;;;;;;;7.27;100.00;96403.88;5040114;28;20201;-69
2022/12/26 02:14:16;;;;;;;8.33;4.40;;;;;;;7.16;100.00;96407.72;5038860;28;20197;-69
2022/12/26 02:16:42;;;;;;;10.17;4.73;;;;;;;7.25;100.00;96418.09;5040158;28;20216;-70
2022/12/26 02:19:21;;;;;;;9.73;4.47;;;;;;;7.36;100.00;96415.25;5040346;28;20239;-70
2022/12/26 02:22:14;;;;;;;10.67;4.33;;;;;;;7.53;100.00;96409.13;5040831;28;20586;-72
2022/12/26 02:25:03;;;;;;;11.13;5.00;;;;;;;7.46;100.00;96414.16;5039989;28;20205;-71
2022/12/26 02:27:53;;;;;;;7.13;4.20;;;;;;;7.54;100.00;96413.41;5040638;28;20232;-71
2022/12/26 02:30:32;;;;;;;9.70;4.53;;;;;;;7.47;100.00;96410.56;5040987;28;20220;-69
2022/12/26 02:33:19;;;;;;;10.13;4.80;;;;;;;7.54;100.00;96398.47;5041123;28;20197;-71
2022/12/26 02:36:04;;;;;;;14.87;5.67;;;;;;;7.44;100.00;96400.38;5039771;28;20216;-72
2022/12/26 02:38:41;;;;;;;8.87;4.10;;;;;;;7.33;100.00;96391.94;5040377;28;20221;-69
2022/12/26 02:41:21;;;;;;;9.30;4.13;;;;;;;7.43;100.00;96405.78;5041183;28;20311;-71
2022/12/26 02:47:01;;;;;;;10.90;4.43;;;;;;;7.12;100.00;96411.63;5039168;28;20885;-70
2022/12/26 02:47:04;;;;;;;10.10;4.10;;;;;;;7.20;100.00;96409.88;5039012;28;20835;-71
2022/12/26 03:15:22;;;;;;;7.17;3.87;;;;;;;7.16;100.00;96386.75;5039328;28;20704;-72
2022/12/26 03:17:51;;;;;;;8.67;4.67;;;;;;;7.11;100.00;96389.00;5038741;28;20197;-72
2022/12/26 03:20:23;;;;;;;8.00;4.03;;;;;;;7.19;100.00;96386.44;5039051;28;20324;-72
2022/12/26 03:22:54;;;;;;;8.23;3.87;;;;;;;7.12;100.00;96388.84;5038683;28;20197;-72
2022/12/26 03:28:11;;;;;;;8.87;3.90;;;;;;;7.13;100.00;96402.75;5040308;28;20283;-69
2022/12/26 03:30:48;;;;;;;5.47;3.67;;;;;;;7.32;100.00;96400.81;5040486;28;20204;-70
2022/12/26 03:36:01;;;;;;;7.60;3.50;;;;;;;7.51;100.00;96409.28;5039671;28;20250;-69
2022/12/26 03:38:34;;;;;;;7.03;3.33;;;;;;;7.51;100.00;96411.91;5040105;28;20229;-69
2022/12/26 04:46:25;;;;;;;7.40;3.87;;;;;;;8.01;100.00;96397.91;5036891;28;20219;-69
2022/12/26 04:51:38;;;;;;;11.67;3.80;;;;;;;8.00;100.00;96405.94;5036662;28;20242;-70
2022/12/26 04:54:05;;;;;;;5.93;2.87;;;;;;;7.98;100.00;96405.28;5036229;28;20982;-69
2022/12/26 04:56:32;;;;;;;7.20;3.87;;;;;;;8.06;100.00;96410.56;5037319;28;20217;-70
2022/12/26 04:59:00;;;;;;;7.30;3.97;;;;;;;8.16;100.00;96406.03;5036803;28;20213;-69
2022/12/26 05:09:41;;;;;;;4.77;2.20;;;;;;;8.11;100.00;96408.31;5036117;28;20278;-70
2022/12/26 05:12:09;;;;;;;8.13;4.10;;;;;;;8.23;100.00;96407.06;5037440;28;20197;-70
2022/12/26 05:14:37;;;;;;;6.63;3.40;;;;;;;8.19;100.00;96401.28;5036827;28;20216;-70
2022/12/26 05:31:06;;;;;;;8.27;4.07;;;;;;;8.15;100.00;96430.66;5029101;28;20207;-70
2022/12/26 05:36:19;;;;;;;7.77;3.73;;;;;;;8.23;100.00;96428.06;5036654;28;20578;-70
2022/12/26 05:38:47;;;;;;;10.70;4.57;;;;;;;8.19;100.00;96438.03;5036174;28;20788;-71
2022/12/26 05:41:13;;;;;;;7.10;3.53;;;;;;;8.08;100.00;96445.34;5036415;28;20285;-70
2022/12/26 05:43:40;;;;;;;15.73;4.63;;;;;;;8.13;100.00;96437.81;5036724;28;20567;-70
2022/12/26 05:46:07;;;;;;;10.33;4.10;;;;;;;8.24;100.00;96429.72;5036645;28;20209;-71
2022/12/26 05:48:34;;;;;;;9.50;4.17;;;;;;;8.11;100.00;96429.31;5036156;28;20237;-69
2022/12/26 05:51:02;;;;;;;7.93;3.57;;;;;;;8.16;100.00;96427.03;5036406;28;20667;-70
2022/12/26 05:53:30;;;;;;;9.00;4.17;;;;;;;8.23;100.00;96417.56;5036720;28;20216;-69
2022/12/26 05:56:02;;;;;;;8.53;3.77;;;;;;;8.21;100.00;96409.00;5036316;28;20205;-71
2022/12/26 05:58:28;;;;;;;7.70;3.77;;;;;;;8.07;100.00;96417.44;5036714;28;20236;-71
2022/12/26 06:01:04;;;;;;;7.47;3.73;;;;;;;8.26;100.00;96407.56;5037218;28;20217;-71
2022/12/26 06:03:32;;;;;;;7.30;3.90;;;;;;;8.10;100.00;96404.03;5036268;28;20236;-71
2022/12/26 06:05:59;;;;;;;8.70;4.07;;;;;;;8.15;100.00;96405.22;5036499;28;20571;-69
2022/12/26 06:08:25;;;;;;;10.50;3.83;;;;;;;8.07;100.00;96404.31;5036533;28;20229;-70
2022/12/26 06:10:52;;;;;;;13.80;5.27;;;;;;;8.06;100.00;96400.09;5036898;28;20227;-69
2022/12/26 06:13:18;;;;;;;9.07;4.80;;;;;;;8.14;100.00;96394.88;5036287;28;20214;-71
2022/12/26 06:15:45;;;;;;;7.17;4.13;;;;;;;8.17;100.00;96391.94;5035621;28;20197;-69
2022/12/26 06:18:11;;;;;;;10.60;4.27;;;;;;;8.17;100.00;96397.19;5036879;28;20213;-72
2022/12/26 06:20:39;;;;;;;9.33;3.97;;;;;;;8.26;100.00;96385.72;5036743;28;20792;-72
2022/12/26 06:23:06;;;;;;;8.50;4.30;;;;;;;8.18;100.00;96383.09;5035601;28;20208;-72
2022/12/26 06:25:33;;;;;;;9.60;4.40;;;;;;;8.22;100.00;96382.63;5035394;28;20201;-72
2022/12/26 06:27:59;;;;;;;9.57;4.47;;;;;;;8.12;100.00;96381.91;5036158;28;20204;-72
2022/12/26 06:30:26;;;;;;;10.73;4.50;;;;;;;8.08;100.00;96384.97;5038567;28;21010;-72
2022/12/26 06:32:52;;;;;;;8.20;4.23;;;;;;;8.18;100.00;96383.09;5039914;28;20209;-71
2022/12/26 06:35:18;;;;;;;14.60;4.60;;;;;;;8.20;100.00;96391.63;5038752;28;20216;-72
2022/12/26 06:37:46;;;;;;;11.10;5.17;;;;;;;8.34;100.00;96394.47;5039585;28;20767;-71
2022/12/26 06:40:13;;;;;;;8.80;3.77;;;;;;;8.31;100.00;96399.22;5039159;28;20240;-72
2022/12/26 06:42:39;;;;;;;7.77;4.50;;;;;;;8.27;100.00;96403.13;5039568;28;20205;-71
2022/12/26 06:45:07;;;;;;;13.90;4.43;;;;;;;8.32;100.00;96406.91;5039734;28;20212;-72
2022/12/26 06:47:33;;;;;;;10.43;4.50;;;;;;;8.35;100.00;96411.88;5039262;28;20258;-72
2022/12/26 06:49:59;;;;;;;13.73;6.63;;;;;;;8.43;100.00;96414.50;5038874;28;20217;-71
2022/12/26 06:52:27;;;;;;;9.90;4.60;;;;;;;8.52;100.00;96419.63;5040222;28;20209;-71
2022/12/26 06:54:54;;;;;;;9.30;4.70;;;;;;;8.49;100.00;96419.94;5038841;28;20201;-71
2022/12/26 06:57:21;;;;;;;13.60;5.03;;;;;;;8.53;100.00;96423.91;5038715;28;20213;-72
2022/12/26 06:59:47;;;;;;;11.97;5.47;;;;;;;8.53;100.00;96416.03;5038166;28;20236;-71
2022/12/26 07:02:14;;;;;;;10.30;4.40;;;;;;;8.48;100.00;96423.53;5038780;28;20209;-71
2022/12/26 07:04:40;;;;;;;11.87;4.93;;;;;;;8.50;100.00;96432.09;5038645;28;20205;-71
2022/12/26 07:07:07;;;;;;;11.07;5.20;;;;;;;8.50;100.00;96437.34;5038842;28;20217;-71
2022/12/26 07:09:33;;;;;;;10.47;4.47;;;;;;;8.53;100.00;96437.03;5038368;28;20221;-71
2022/12/26 07:12:01;;;;;;;11.03;4.70;;;;;;;8.57;100.00;96433.09;5039040;28;20204;-71
2022/12/26 07:14:28;;;;;;;2.57;2.07;;;;;;;8.37;100.00;96430.91;5038290;28;20209;-71
2022/12/26 07:16:54;;;;;;;7.53;3.17;;;;;;;8.50;100.00;96434.72;5038638;28;20197;-71
2022/12/26 07:19:21;;;;;;;10.10;3.87;;;;;;;8.52;100.00;96435.38;5039155;28;20239;-72
2022/12/26 07:21:48;;;;;;;10.83;4.57;;;;;;;8.54;100.00;96430.81;5039123;28;20217;-72
2022/12/26 07:24:16;;;;;;;11.30;4.73;;;;;;;8.61;100.00;96434.41;5036834;28;20209;-71
2022/12/26 07:26:43;;;;;;;11.20;5.37;;;;;;;8.56;100.00;96426.19;5036560;28;20205;-71
2022/12/26 07:29:11;;;;;;;9.63;4.53;;;;;;;8.69;100.00;96426.59;5035227;28;20229;-70
2022/12/26 07:31:38;;;;;;;14.77;5.67;;;;;;;8.86;100.00;96428.25;5046745;28;20240;-70
2022/12/26 07:34:05;;;;;;;11.57;4.73;;;;;;;9.01;100.00;96426.59;5043355;28;20197;-71
2022/12/26 07:36:31;;;;;;;10.07;4.67;;;;;;;8.98;100.00;96431.38;5040089;28;20210;-71
2022/12/26 07:38:58;;;;;;;15.23;5.43;;;;;;;8.99;100.00;96431.22;5037531;28;20694;-71
2022/12/26 07:44:09;;;;;;;12.17;6.07;;;;;;;8.79;100.00;96432.50;5036646;28;20240;-69
2022/12/26 07:46:37;;;;;;;10.37;4.70;;;;;;;8.84;100.00;96430.19;5037626;28;20204;-70
2022/12/26 07:49:04;;;;;;;11.57;5.33;;;;;;;8.68;100.00;96429.34;5037912;28;20221;-72
2022/12/26 07:51:30;;;;;;;9.63;5.60;;;;;;;8.66;100.00;96432.13;5038038;28;20201;-72
2022/12/26 07:53:57;;;;;;;9.50;4.03;;;;;;;8.74;100.00;96429.53;5036532;28;20677;-72
2022/12/26 07:56:23;;;;;;;11.90;5.03;;;;;;;8.74;100.00;96434.78;5037629;28;20219;-72
2022/12/26 07:58:51;;;;;;;15.37;5.37;;;;;;;8.83;100.00;96433.81;5038880;28;20224;-72
2022/12/26 08:01:18;;;;;;;15.93;5.70;;;;;;;8.78;100.00;96425.63;5037839;28;20232;-72
2022/12/26 08:03:47;;;;;;;14.80;6.67;;;;;;;8.95;100.00;96432.53;5036577;28;20489;-71
2022/12/26 08:06:14;;;;;;;15.87;5.67;;;;;;;8.85;100.00;96425.78;5037972;28;20217;-71
2022/12/26 08:08:40;;;;;;;11.57;5.77;;;;;;;8.88;100.00;96430.72;5037882;28;20217;-71
2022/12/26 08:11:08;;;;;;;16.37;7.40;;;;;;;8.95;100.00;96427.28;5038277;28;20806;-70
2022/12/26 08:13:35;;;;;;;18.03;7.00;;;;;;;8.94;100.00;96436.13;5036473;28;20632;-70
2022/12/26 08:16:05;;;;;;;13.83;5.53;;;;;;;9.08;100.00;96432.06;5037705;28;20205;-69
2022/12/26 08:18:31;;;;;;;20.97;7.50;;;;;;;9.03;100.00;96423.84;5036918;28;20310;-70
2022/12/26 08:21:00;;;;;;;16.87;7.23;;;;;;;9.21;100.00;96414.78;5037283;28;20221;-70
2022/12/26 08:23:26;;;;;;;16.93;7.20;;;;;;;9.16;100.00;96428.44;5036792;28;20721;-70
2022/12/26 08:25:52;;;;;;;11.77;4.93;;;;;;;9.11;100.00;96422.00;5037243;28;20201;-69
2022/12/26 08:28:19;;;;;;;14.67;6.20;;;;;;;9.17;100.00;96434.53;5036922;28;20205;-70
2022/12/26 08:30:45;;;;;;;12.40;5.43;;;;;;;9.24;100.00;96430.22;5037043;28;20624;-69
2022/12/26 08:33:12;;;;;;;9.50;4.63;;;;;;;9.38;100.00;96430.41;5037256;28;20213;-70
2022/12/26 08:35:39;;;;;;;15.63;6.10;;;;;;;9.43;100.00;96448.31;5036264;28;20208;-70
2022/12/26 08:38:07;;;;;;;15.17;5.73;;;;;;;9.56;100.00;96438.94;5037731;28;20229;-70
2022/12/26 08:40:34;;;;;;;16.47;6.43;;;;;;;9.49;100.00;96432.69;5041264;28;20266;-71
2022/12/26 08:43:01;;;;;;;13.37;5.03;;;;;;;9.44;100.00;96434.19;5043226;28;20197;-70
2022/12/26 08:45:27;;;;;;;11.27;3.97;;;;;;;9.55;100.00;96428.59;5042022;28;20216;-70
2022/12/26 08:47:54;;;;;;;12.43;5.50;;;;;;;9.53;100.00;96430.56;5042491;28;20899;-71
2022/12/26 08:50:21;;;;;;;11.40;4.87;;;;;;;9.65;100.00;96431.84;5043580;28;20225;-70
2022/12/26 08:52:47;;;;;;;7.43;4.10;;;;;;;9.55;100.00;96425.97;5041186;28;20208;-70
2022/12/26 08:55:15;;;;;;;14.17;4.33;;;;;;;9.70;100.00;96425.94;5042360;28;20205;-70
2022/12/26 08:57:42;;;;;;;14.27;5.30;;;;;;;9.80;100.00;96421.31;5041387;28;20213;-71
2022/12/26 09:00:10;;;;;;;11.00;5.17;;;;;;;9.90;100.00;96419.31;5037724;28;21151;-69
2022/12/26 09:02:37;;;;;;;13.03;6.33;;;;;;;9.99;100.00;96415.72;5036415;28;20728;-71
2022/12/26 09:05:03;;;;;;;10.73;5.67;;;;;;;10.14;100.00;96427.16;5036354;28;20205;-70
2022/12/26 09:07:30;;;;;;;15.60;5.53;;;;;;;10.07;100.00;96428.00;5036650;28;20212;-71
2022/12/26 09:09:56;;;;;;;11.67;6.13;;;;;;;10.10;100.00;96433.75;5036772;28;20221;-70
2022/12/26 09:12:24;;;;;;;15.47;5.40;;;;;;;10.18;100.00;96436.38;5036863;28;20204;-71
2022/12/26 09:14:51;;;;;;;12.30;5.10;;;;;;;10.12;100.00;96436.22;5035843;28;20204;-72
2022/12/26 09:17:17;;;;;;;12.03;5.40;;;;;;;10.05;100.00;96437.91;5037836;28;20901;-70
2022/12/26 09:19:44;;;;;;;7.27;3.40;;;;;;;10.01;100.00;96442.69;5042466;28;20290;-70
2022/12/26 09:24:54;;;;;;;13.40;5.67;;;;;;;10.24;100.00;96434.88;5041065;28;20713;-69
2022/12/26 09:27:21;;;;;;;14.53;6.23;;;;;;;10.37;100.00;96436.81;5041445;28;20812;-71
2022/12/26 09:29:48;;;;;;;12.27;5.20;;;;;;;10.39;100.00;96450.63;5041664;28;20221;-70
2022/12/26 09:32:15;;;;;;;12.50;4.60;;;;;;;10.42;100.00;96455.56;5038480;28;20224;-72
2022/12/26 09:34:41;;;;;;;13.33;5.33;;;;;;;10.44;100.00;96450.13;5036148;28;20200;-72
2022/12/26 09:37:08;;;;;;;11.40;5.83;;;;;;;10.63;100.00;96461.06;5036581;28;20208;-72
2022/12/26 09:39:34;;;;;;;6.00;2.80;;;;;;;10.57;100.00;96464.38;5037201;28;20220;-72
2022/12/26 09:42:13;;;;;;;12.43;6.30;;;;;;;10.68;100.00;96461.38;5036461;28;20221;-72
2022/12/26 09:44:50;;;;;;;7.73;3.50;;;;;;;10.78;100.00;96455.88;5034585;28;20956;-72
2022/12/26 09:47:31;;;;;;;12.53;5.53;;;;;;;10.84;100.00;96450.72;5036123;28;20204;-72
2022/12/26 09:50:02;;;;;;;11.87;5.30;;;;;;;10.89;100.00;96443.13;5036173;28;20228;-72
2022/12/26 09:52:38;;;;;;;10.70;5.17;;;;;;;11.02;100.00;96438.94;5035563;28;20212;-72
2022/12/26 09:55:16;;;;;;;8.67;4.27;;;;;;;10.96;100.00;96446.72;5034632;28;20204;-71
2022/12/26 09:57:46;;;;;;;5.80;3.33;;;;;;;10.88;100.00;96452.03;5035976;28;20209;-70
2022/12/26 10:00:19;;;;;;;8.70;4.50;;;;;;;10.99;100.00;96449.00;5035659;28;20693;-70
2022/12/26 10:02:52;;;;;;;11.10;5.17;;;;;;;10.84;100.00;96463.91;5036450;28;20224;-71
2022/12/26 10:05:20;;;;;;;13.47;5.33;;;;;;;10.60;100.00;96463.22;5037467;28;20212;-70
2022/12/26 10:07:51;;;;;;;11.60;5.40;;;;;;;10.76;100.00;96473.69;5039736;28;20666;-70
2022/12/26 10:10:25;;;;;;;13.23;5.60;;;;;;;10.57;100.00;96469.63;5040592;28;20233;-70
2022/12/26 10:12:58;;;;;;;11.50;4.67;;;;;;;10.59;100.00;96478.22;5039499;28;20201;-70
2022/12/26 10:15:34;;;;;;;11.70;5.40;;;;;;;10.61;100.00;96481.47;5038066;28;20209;-70
2022/12/26 10:18:14;;;;;;;8.63;4.30;;;;;;;10.67;100.00;96469.44;5039865;28;20204;-70
2022/12/26 10:20:51;;;;;;;9.50;4.87;;;;;;;10.49;100.00;96466.25;5039440;28;20204;-70
2022/12/26 10:23:32;;;;;;;11.97;5.70;;;;;;;10.52;100.00;96466.69;5036898;28;20197;-71
2022/12/26 10:26:06;;;;;;;13.60;5.57;;;;;;;10.42;100.00;96457.34;5038972;28;20410;-69
2022/12/26 10:28:38;;;;;;;13.43;5.57;;;;;;;10.52;100.00;96461.44;5039186;28;20228;-71
2022/12/26 10:31:07;;;;;;;10.37;4.37;;;;;;;10.46;100.00;96456.88;5039897;28;20714;-70
2022/12/26 10:33:41;;;;;;;6.53;2.90;;;;;;;10.49;100.00;96458.34;5039720;28;20201;-70
2022/12/26 10:36:16;;;;;;;7.53;3.53;;;;;;;10.50;100.00;96459.94;5039443;28;20201;-70
2022/12/26 10:38:46;;;;;;;12.70;4.60;;;;;;;10.46;100.00;96459.50;5039457;28;20229;-70
2022/12/26 10:41:18;;;;;;;6.63;3.60;;;;;;;10.47;100.00;96458.47;5040358;28;20225;-70
2022/12/26 10:43:44;;;;;;;5.80;2.97;;;;;;;10.44;100.00;96468.56;5038848;28;20216;-70
2022/12/26 10:46:40;;;;;;;12.47;5.57;;;;;;;10.62;100.00;96471.78;5038914;28;20570;-69
2022/12/26 10:49:12;;;;;;;8.73;4.00;;;;;;;10.65;100.00;96476.69;5039477;28;20221;-70
2022/12/26 10:51:39;;;;;;;9.97;4.27;;;;;;;10.61;100.00;96464.84;5037975;28;20688;-70
2022/12/26 10:54:12;;;;;;;5.50;2.83;;;;;;;10.64;100.00;96472.41;5037681;28;20209;-70
2022/12/26 10:56:39;;;;;;;10.43;4.80;;;;;;;10.64;100.00;96482.94;5038955;28;20205;-70
2022/12/26 10:59:14;;;;;;;15.67;5.07;;;;;;;10.69;100.00;96478.00;5038027;28;20216;-70
2022/12/26 11:01:46;;;;;;;11.63;4.77;;;;;;;10.68;100.00;96468.44;5038841;28;20227;-69
2022/12/26 11:04:18;;;;;;;14.00;4.80;;;;;;;10.87;100.00;96475.91;5038096;28;20312;-70
2022/12/26 11:06:46;;;;;;;18.63;5.83;;;;;;;10.66;100.00;96480.97;5039051;28;20205;-70
2022/12/26 11:09:24;;;;;;;13.90;5.93;;;;;;;10.84;100.00;96492.09;5038866;28;20217;-70
2022/12/26 11:11:53;;;;;;;15.10;5.67;;;;;;;10.63;100.00;96489.25;5039169;28;20197;-71
2022/12/26 11:14:28;;;;;;;12.87;5.00;;;;;;;10.73;100.00;96487.19;5038386;28;20216;-70
2022/12/26 11:16:58;;;;;;;12.97;5.60;;;;;;;10.79;100.00;96495.22;5037770;28;20200;-70
2022/12/26 11:19:31;;;;;;;17.97;7.20;;;;;;;10.78;100.00;96505.94;5039043;28;20236;-70
2022/12/26 11:22:23;;;;;;;13.20;6.63;;;;;;;10.77;100.00;96499.03;5039175;28;20222;-70
2022/12/26 11:25:11;;;;;;;11.50;6.10;;;;;;;10.81;100.00;96501.16;5037567;28;20201;-70
2022/12/26 11:27:38;;;;;;;10.40;5.60;;;;;;;10.63;100.00;96510.31;5038815;28;20197;-69
2022/12/26 11:30:26;;;;;;;14.27;6.33;;;;;;;10.93;100.00;96497.16;5038651;28;20221;-70
2022/12/26 11:33:06;;;;;;;14.67;6.13;;;;;;;10.81;100.00;96497.72;5037913;28;20562;-69
2022/12/26 11:35:36;;;;;;;16.73;6.37;;;;;;;10.75;100.00;96503.66;5038105;28;20201;-70
2022/12/26 11:38:04;;;;;;;14.47;5.73;;;;;;;10.74;100.00;96513.38;5038290;28;20205;-71
2022/12/26 11:40:36;;;;;;;14.07;6.17;;;;;;;10.69;100.00;96509.63;5038220;28;20240;-69
2022/12/26 11:43:05;;;;;;;14.60;5.63;;;;;;;10.61;100.00;96517.56;5038596;28;20253;-70
2022/12/26 11:45:41;;;;;;;12.87;5.50;;;;;;;10.59;100.00;96509.84;5037500;28;20650;-70
2022/12/26 11:48:19;;;;;;;12.97;6.67;;;;;;;10.72;100.00;96504.84;5037998;28;20212;-69
2022/12/26 11:50:47;;;;;;;14.67;7.17;;;;;;;10.52;100.00;96505.41;5038212;28;20205;-70
2022/12/26 11:53:17;;;;;;;6.00;3.13;;;;;;;10.64;100.00;96512.78;5038496;28;20201;-70
2022/12/26 11:55:45;;;;;;;15.33;6.70;;;;;;;10.55;100.00;96513.81;5037482;28;20227;-69
2022/12/26 11:58:20;;;;;;;15.40;6.47;;;;;;;10.71;100.00;96508.44;5038287;28;20212;-70
2022/12/26 12:01:12;;;;;;;14.77;5.90;;;;;;;10.60;100.00;96516.75;5038146;28;20211;-69
2022/12/26 12:03:41;;;;;;;16.03;7.13;;;;;;;10.56;100.00;96522.50;5037765;28;20232;-69
2022/12/26 12:06:22;;;;;;;16.50;7.47;;;;;;;10.66;100.00;96520.50;5039615;28;20246;-69
2022/12/26 12:08:59;;;;;;;14.93;5.90;;;;;;;10.69;100.00;96517.53;5042421;28;20228;-70
2022/12/26 12:11:35;;;;;;;10.23;4.60;;;;;;;10.55;100.00;96539.31;5041616;28;20209;-70
2022/12/26 12:14:18;;;;;;;13.47;6.67;;;;;;;10.48;100.00;96539.16;5034792;28;20212;-69
2022/12/26 12:16:55;;;;;;;14.83;5.97;;;;;;;10.50;100.00;96546.91;5037685;28;20579;-70
2022/12/26 12:19:35;;;;;;;15.37;6.07;;;;;;;10.54;100.00;96546.41;5036976;28;20716;-69
2022/12/26 12:22:23;;;;;;;12.50;5.33;;;;;;;10.40;100.00;96551.56;5040584;28;20228;-70
2022/12/26 12:25:04;;;;;;;16.93;5.77;;;;;;;10.44;100.00;96540.50;5044658;28;20204;-70
2022/12/26 12:27:36;;;;;;;17.13;7.10;;;;;;;10.50;100.00;96536.34;5047631;28;20213;-70
2022/12/26 12:30:15;;;;;;;14.00;5.63;;;;;;;10.51;100.00;96538.00;5049033;28;20308;-70
2022/12/26 12:32:56;;;;;;;10.67;5.40;;;;;;;10.55;100.00;96528.78;5049287;28;20204;-70
2022/12/26 12:35:35;;;;;;;13.27;6.33;;;;;;;10.51;100.00;96503.75;5048062;28;20197;-70
2022/12/26 12:38:26;;;;;;;16.13;6.57;;;;;;;10.56;100.00;96496.97;5045997;28;20208;-70
2022/12/26 12:41:06;;;;;;;11.57;5.73;;;;;;;10.60;100.00;96500.94;5045927;28;20201;-70
2022/12/26 12:43:41;;;;;;;14.63;6.63;;;;;;;10.53;100.00;96493.88;5049020;28;20251;-70
2022/12/26 12:46:18;;;;;;;19.73;6.63;;;;;;;10.58;100.00;96483.66;5048635;28;20196;-70
2022/12/26 12:49:01;;;;;;;13.73;6.50;;;;;;;10.58;100.00;96502.09;5048719;28;20224;-70
2022/12/26 12:51:36;;;;;;;16.47;6.90;;;;;;;10.76;100.00;96497.41;5049141;28;20205;-70
2022/12/26 12:54:27;;;;;;;18.30;7.47;;;;;;;10.83;100.00;96504.44;5048618;28;20201;-70
2022/12/26 12:57:05;;;;;;;16.27;7.37;;;;;;;10.70;100.00;96496.25;5045977;28;20224;-70
2022/12/26 12:59:42;;;;;;;15.77;5.90;;;;;;;10.72;100.00;96504.84;5042192;28;20753;-71
2022/12/26 13:02:17;;;;;;;16.03;6.03;;;;;;;10.72;100.00;96504.84;5039735;28;20598;-69
2022/12/26 13:04:46;;;;;;;20.20;8.00;;;;;;;10.54;100.00;96513.97;5039292;28;20215;-70
2022/12/26 13:07:21;;;;;;;23.43;7.30;;;;;;;10.74;100.00;96517.84;5037408;28;20221;-70
2022/12/26 13:09:52;;;;;;;17.80;6.43;;;;;;;10.64;100.00;96522.47;5037478;28;20224;-70
2022/12/26 13:12:22;;;;;;;11.93;4.60;;;;;;;10.56;100.00;96525.16;5038123;28;20212;-71
2022/12/26 13:14:54;;;;;;;10.53;4.60;;;;;;;10.55;100.00;96526.13;5037521;28;20209;-71
2022/12/26 13:17:25;;;;;;;11.40;4.57;;;;;;;10.51;100.00;96516.94;5039428;28;20216;-70
2022/12/26 13:20:00;;;;;;;8.90;3.70;;;;;;;10.48;100.00;96504.91;5040978;28;20221;-70
2022/12/26 13:24:22;;;;;;;9.07;3.10;;;;;;;10.51;100.00;96490.59;5040562;28;20243;-69
2022/12/26 13:25:18;;;;;;;9.07;3.60;;;;;;;10.95;100.00;96495.16;5037437;28;20319;-70
2022/12/26 13:27:48;;;;;;;13.17;4.47;;;;;;;11.03;100.00;96498.56;5038359;28;20201;-70
2022/12/26 13:30:17;;;;;;;12.50;5.13;;;;;;;11.00;100.00;96509.47;5039236;28;20229;-70
2022/12/26 13:32:44;;;;;;;10.57;3.47;;;;;;;10.73;100.00;96510.91;5040695;28;20202;-70
2022/12/26 13:35:52;;;;;;;6.83;3.00;;;;;;;10.82;100.00;96508.09;5040017;28;20244;-70
2022/12/26 13:38:19;;;;;;;13.40;3.20;;;;;;;10.83;100.00;96493.09;5039368;28;20213;-70
2022/12/26 13:40:49;;;;;;;8.40;2.67;;;;;;;10.50;100.00;96507.38;5043359;28;20673;-70
2022/12/26 13:46:04;;;;;;;4.40;2.50;;;;;;;10.36;100.00;96534.41;5043422;28;20212;-70
2022/12/26 13:48:58;;;;;;;9.57;3.47;;;;;;;10.49;100.00;96534.75;5044029;28;20236;-70
2022/12/26 13:51:46;;;;;;;5.97;3.07;;;;;;;10.42;100.00;96515.31;5044078;28;20604;-70
2022/12/26 13:54:15;;;;;;;8.13;3.07;;;;;;;10.28;100.00;96510.75;5034654;28;20201;-70
2022/12/26 13:57:20;;;;;;;9.20;3.70;;;;;;;10.41;100.00;96503.97;5042832;28;20212;-70